Time;durP1;ratioP1;P1;durP2;ratioP2;P2;SDS_P1;SDS_P2;PMS_P1;PMS_P2;Temp;Humidity;BMP_temperature;BMP_pressure;BME280_temperature;BME280_humidity;BME280_pressure;Samples;Min_cycle;Max_cycle;Signal;HPM_P1;HPM_P2
2023/01/13 00:01:26;;;;;;;15.90;5.97;;;6.60;99.90;;;;;;4954684;28;20204;-84
2023/01/13 00:03:53;;;;;;;16.10;6.30;;;6.70;99.90;;;;;;4975766;28;20563;-87
2023/01/13 00:06:24;;;;;;;15.00;6.27;;;6.60;99.90;;;;;;4960063;28;20207;-79
2023/01/13 00:08:52;;;;;;;15.13;6.07;;;6.50;99.90;;;;;;4959658;28;20208;-83
2023/01/13 00:11:19;;;;;;;12.47;6.20;;;6.60;99.90;;;;;;4977650;28;20193;-86
2023/01/13 00:13:46;;;;;;;15.60;5.60;;;6.70;99.90;;;;;;4976619;28;20310;-85
2023/01/13 00:16:16;;;;;;;17.27;6.80;;;6.60;99.90;;;;;;4975660;28;20211;-86
2023/01/13 00:18:43;;;;;;;14.00;5.77;;;6.50;99.90;;;;;;4977671;28;20198;-88
2023/01/13 00:21:16;;;;;;;13.43;6.17;;;6.50;99.90;;;;;;4976955;28;20547;-81
2023/01/13 00:23:43;;;;;;;15.10;5.53;;;6.50;99.90;;;;;;4978972;28;20200;-83
2023/01/13 00:26:16;;;;;;;16.47;5.80;;;6.50;99.90;;;;;;4959364;28;20207;-85
2023/01/13 00:28:43;;;;;;;16.00;6.13;;;6.50;99.90;;;;;;4959744;28;20283;-86
2023/01/13 00:31:12;;;;;;;14.63;6.23;;;6.60;99.90;;;;;;4975715;28;20514;-90
2023/01/13 00:33:40;;;;;;;15.60;6.10;;;6.50;99.90;;;;;;4975641;28;20227;-83
2023/01/13 00:36:09;;;;;;;14.93;5.80;;;6.50;99.90;;;;;;4959110;28;20198;-82
2023/01/13 00:38:37;;;;;;;14.83;6.00;;;6.50;99.90;;;;;;4977116;28;20621;-83
2023/01/13 00:41:10;;;;;;;15.17;6.27;;;6.50;99.90;;;;;;4958847;28;20784;-81
2023/01/13 00:43:37;;;;;;;12.40;5.57;;;6.50;99.90;;;;;;4976531;28;20200;-83
2023/01/13 00:46:06;;;;;;;14.03;5.27;;;6.50;99.90;;;;;;4975113;28;20264;-85
2023/01/13 00:48:34;;;;;;;14.07;5.73;;;6.50;99.90;;;;;;4969472;28;20303;-82
2023/01/13 00:51:19;;;;;;;14.03;6.13;;;6.50;99.90;;;;;;4963792;28;20201;-83
2023/01/13 00:53:48;;;;;;;11.77;5.73;;;6.40;99.90;;;;;;4975993;28;20225;-85
2023/01/13 00:56:21;;;;;;;14.07;5.80;;;6.50;99.90;;;;;;4976447;28;20192;-87
2023/01/13 00:59:06;;;;;;;12.67;5.63;;;6.50;99.90;;;;;;4987694;28;20326;-84
2023/01/13 01:01:32;;;;;;;14.20;5.83;;;6.50;99.90;;;;;;4996416;28;20198;-85
2023/01/13 01:03:59;;;;;;;13.90;6.10;;;6.60;99.90;;;;;;4996053;28;20538;-84
2023/01/13 01:06:26;;;;;;;12.63;5.63;;;6.50;99.90;;;;;;4994069;28;21018;-86
2023/01/13 01:08:56;;;;;;;12.03;5.77;;;6.50;99.90;;;;;;4978590;28;20212;-85
2023/01/13 01:11:26;;;;;;;14.50;5.73;;;6.50;99.90;;;;;;4978457;28;20205;-86
2023/01/13 01:13:58;;;;;;;12.50;5.93;;;6.50;99.90;;;;;;4977726;28;20222;-85
2023/01/13 01:19:13;;;;;;;14.23;5.77;;;6.40;99.90;;;;;;5225412;23;20243;-93
2023/01/13 01:23:43;;;;;;;;;;;;;;;;;;;;;
2023/01/13 01:31:50;;;;;;;13.87;5.30;;;6.60;99.90;;;;;;4699221;30;20238;-93
2023/01/13 01:45:11;;;;;;;15.33;6.00;;;6.50;99.90;;;;;;4825914;29;20215;-79
2023/01/13 01:47:38;;;;;;;13.37;6.30;;;6.40;99.90;;;;;;4827002;29;20252;-81
2023/01/13 01:50:06;;;;;;;12.83;5.43;;;6.40;99.90;;;;;;4841791;29;20574;-82
2023/01/13 01:52:39;;;;;;;11.97;5.80;;;6.40;99.90;;;;;;4825677;29;20243;-82
2023/01/13 01:55:12;;;;;;;11.80;5.90;;;6.40;99.90;;;;;;4840688;29;20216;-80
2023/01/13 01:57:46;;;;;;;14.13;5.97;;;6.40;99.90;;;;;;4840708;29;20209;-81
2023/01/13 02:00:14;;;;;;;15.57;5.90;;;6.40;99.90;;;;;;4825321;29;20228;-79
2023/01/13 02:02:44;;;;;;;12.97;5.30;;;6.40;99.90;;;;;;4825429;29;20216;-79
2023/01/13 02:05:11;;;;;;;15.83;5.93;;;6.40;99.90;;;;;;4809919;29;20263;-80
2023/01/13 02:07:41;;;;;;;11.23;5.60;;;6.60;99.90;;;;;;4810309;29;20653;-79
2023/01/13 02:10:11;;;;;;;12.27;5.90;;;6.40;99.90;;;;;;4825892;29;20213;-78
2023/01/13 02:12:41;;;;;;;11.13;5.07;;;6.40;99.90;;;;;;4825182;29;20590;-79
2023/01/13 02:15:12;;;;;;;11.60;5.60;;;6.40;99.90;;;;;;4825357;29;20220;-79
2023/01/13 02:17:58;;;;;;;14.03;5.80;;;6.40;99.90;;;;;;4883558;29;20705;-80
2023/01/13 02:21:02;;;;;;;11.73;5.77;;;6.40;99.90;;;;;;4954612;29;20686;-80
2023/01/13 02:26:56;;;;;;;10.80;5.30;;;6.50;99.90;;;;;;4970425;28;20294;-81
2023/01/13 02:33:00;;;;;;;13.53;5.83;;;6.50;99.90;;;;;;4970867;28;20302;-80
2023/01/13 02:35:32;;;;;;;13.23;5.73;;;6.50;99.90;;;;;;4968867;28;20650;-81
2023/01/13 02:38:00;;;;;;;16.03;5.90;;;6.50;99.90;;;;;;4937953;29;20204;-81
2023/01/13 02:40:39;;;;;;;14.53;5.83;;;6.40;99.90;;;;;;4954016;28;20225;-81
2023/01/13 02:46:36;;;;;;;11.90;5.57;;;6.40;99.90;;;;;;4937695;29;20201;-81
2023/01/13 02:49:10;;;;;;;15.93;6.40;;;6.40;99.90;;;;;;4938272;29;20212;-80
2023/01/13 02:51:39;;;;;;;10.83;5.20;;;6.40;99.90;;;;;;4937730;29;20661;-81
2023/01/13 02:54:16;;;;;;;11.83;5.30;;;6.50;99.90;;;;;;4955190;29;20316;-81
2023/01/13 02:56:46;;;;;;;13.57;5.93;;;6.40;99.90;;;;;;4937587;29;20295;-81
2023/01/13 02:59:13;;;;;;;13.17;5.93;;;6.40;99.90;;;;;;4937569;29;20219;-81
2023/01/13 03:01:42;;;;;;;15.43;5.90;;;6.40;99.90;;;;;;4955133;29;20270;-79
2023/01/13 03:04:14;;;;;;;13.30;5.50;;;6.50;99.90;;;;;;4944485;28;20720;-80
2023/01/13 03:06:52;;;;;;;11.17;5.60;;;6.40;99.90;;;;;;4940609;29;20203;-81
2023/01/13 03:09:36;;;;;;;13.47;5.80;;;6.40;99.90;;;;;;4941646;29;20564;-81
2023/01/13 03:12:29;;;;;;;12.53;5.50;;;6.40;99.90;;;;;;4957574;29;20192;-80
2023/01/13 03:15:15;;;;;;;12.17;5.93;;;6.30;99.90;;;;;;4957369;29;20198;-81
2023/01/13 03:18:04;;;;;;;11.13;5.60;;;6.30;99.90;;;;;;4941324;29;20678;-81
2023/01/13 03:20:37;;;;;;;13.30;5.57;;;6.20;99.90;;;;;;4941344;29;20205;-81
2023/01/13 03:23:28;;;;;;;13.20;5.47;;;6.20;99.90;;;;;;4941357;29;20215;-81
2023/01/13 03:26:12;;;;;;;9.70;4.87;;;6.30;99.90;;;;;;4941388;29;20363;-81
2023/01/13 03:28:44;;;;;;;11.67;5.23;;;6.20;99.90;;;;;;4941264;29;20202;-81
2023/01/13 03:31:26;;;;;;;11.07;5.10;;;6.20;99.90;;;;;;4941095;29;20205;-82
2023/01/13 03:34:01;;;;;;;14.27;5.50;;;6.10;99.90;;;;;;4957182;29;20233;-81
2023/01/13 03:36:30;;;;;;;13.27;5.80;;;6.10;99.90;;;;;;4964280;28;20255;-82
2023/01/13 03:39:03;;;;;;;12.77;5.40;;;6.20;99.90;;;;;;4976718;28;20647;-81
2023/01/13 03:41:41;;;;;;;12.13;5.80;;;6.20;99.90;;;;;;4992703;28;20223;-81
2023/01/13 03:44:21;;;;;;;12.97;5.73;;;6.10;99.90;;;;;;4976162;28;20211;-80
2023/01/13 03:47:05;;;;;;;14.23;5.90;;;6.10;99.90;;;;;;4977303;28;20200;-80
2023/01/13 03:49:53;;;;;;;12.47;5.50;;;6.00;99.90;;;;;;4976132;28;20208;-81
2023/01/13 03:52:36;;;;;;;11.57;5.30;;;6.10;99.90;;;;;;4976037;28;20567;-81
2023/01/13 03:55:09;;;;;;;15.77;5.93;;;6.00;99.90;;;;;;4975963;28;20714;-81
2023/01/13 03:57:44;;;;;;;14.50;5.60;;;6.10;99.90;;;;;;4977258;28;20280;-81
2023/01/13 04:00:13;;;;;;;14.17;5.57;;;6.10;99.90;;;;;;4976180;28;20595;-81
2023/01/13 04:02:48;;;;;;;16.93;5.93;;;6.10;99.90;;;;;;4975787;28;20626;-81
2023/01/13 04:05:16;;;;;;;12.87;5.80;;;6.10;99.90;;;;;;4975570;28;20202;-81
2023/01/13 04:07:59;;;;;;;13.63;6.07;;;6.00;99.90;;;;;;4992022;28;20201;-81
2023/01/13 04:10:46;;;;;;;16.57;5.97;;;5.90;99.90;;;;;;4977216;28;20566;-80
2023/01/13 04:13:20;;;;;;;10.60;5.70;;;6.00;99.90;;;;;;4976761;28;20210;-82
2023/01/13 04:15:48;;;;;;;10.47;5.73;;;6.00;99.90;;;;;;4991690;28;20198;-83
2023/01/13 04:18:29;;;;;;;13.17;5.60;;;6.00;99.90;;;;;;4975075;28;20588;-82
2023/01/13 04:20:59;;;;;;;12.83;5.43;;;6.10;99.90;;;;;;4977382;28;20200;-81
2023/01/13 04:23:27;;;;;;;12.47;5.70;;;6.10;99.90;;;;;;4991805;28;20231;-82
2023/01/13 04:25:54;;;;;;;14.73;5.97;;;6.30;99.90;;;;;;4976700;28;20191;-82
2023/01/13 04:28:22;;;;;;;12.87;5.20;;;6.20;99.90;;;;;;4991809;28;20666;-82
2023/01/13 04:30:49;;;;;;;12.57;5.33;;;6.20;99.90;;;;;;4991640;28;20677;-82
2023/01/13 04:33:17;;;;;;;13.80;5.40;;;6.10;99.90;;;;;;4975467;28;20667;-81
2023/01/13 04:35:45;;;;;;;14.47;5.23;;;6.20;99.90;;;;;;4991220;28;20334;-81
2023/01/13 04:38:15;;;;;;;13.30;5.47;;;6.20;99.90;;;;;;4976604;28;20193;-81
2023/01/13 04:40:43;;;;;;;12.30;5.47;;;6.20;99.90;;;;;;4975262;28;20230;-81
2023/01/13 04:43:09;;;;;;;11.80;4.83;;;6.20;99.90;;;;;;4991424;28;20198;-80
2023/01/13 04:45:37;;;;;;;13.03;5.37;;;6.20;99.90;;;;;;4976165;28;20191;-80
2023/01/13 04:48:04;;;;;;;13.10;5.90;;;6.20;99.90;;;;;;4985781;28;20659;-81
2023/01/13 04:50:31;;;;;;;10.27;5.43;;;6.20;99.90;;;;;;4959025;28;20197;-81
2023/01/13 04:53:00;;;;;;;13.47;5.43;;;6.20;99.90;;;;;;4958926;28;20202;-81
2023/01/13 04:55:27;;;;;;;11.57;5.33;;;6.10;99.90;;;;;;4958728;28;20293;-82
2023/01/13 04:57:54;;;;;;;12.13;5.10;;;6.20;99.90;;;;;;4959096;28;20201;-81
2023/01/13 05:00:22;;;;;;;10.70;5.37;;;6.10;99.90;;;;;;4974759;28;20198;-82
2023/01/13 05:02:49;;;;;;;9.97;5.30;;;6.20;99.90;;;;;;4959328;28;20201;-80
2023/01/13 05:05:17;;;;;;;13.00;5.20;;;6.00;99.90;;;;;;4958169;28;20205;-82
2023/01/13 05:07:44;;;;;;;11.97;5.33;;;6.10;99.90;;;;;;4958298;28;20641;-82
2023/01/13 05:10:12;;;;;;;13.30;5.30;;;6.00;99.90;;;;;;4958618;28;20302;-81
2023/01/13 05:18:10;;;;;;;13.53;5.43;;;6.10;99.90;;;;;;4916926;29;20206;-81
2023/01/13 05:20:37;;;;;;;12.00;5.40;;;6.30;99.90;;;;;;4916066;29;20304;-81
2023/01/13 05:25:49;;;;;;;11.80;4.87;;;6.20;99.90;;;;;;4916067;29;20202;-82
2023/01/13 05:28:16;;;;;;;12.23;5.30;;;6.20;99.90;;;;;;4915935;29;20305;-82
2023/01/13 05:30:45;;;;;;;9.50;5.00;;;6.20;99.90;;;;;;4915544;29;20628;-80
2023/01/13 05:33:16;;;;;;;14.90;5.10;;;6.10;99.90;;;;;;4939603;28;20611;-81
2023/01/13 05:35:46;;;;;;;12.20;5.17;;;6.20;99.90;;;;;;4940260;29;20261;-81
2023/01/13 05:38:14;;;;;;;11.90;4.90;;;6.20;99.90;;;;;;4954923;28;20210;-81
2023/01/13 05:43:27;;;;;;;13.47;5.23;;;6.10;99.90;;;;;;4955856;29;20284;-81
2023/01/13 05:46:07;;;;;;;9.83;4.90;;;6.10;99.90;;;;;;4955820;29;20195;-82
2023/01/13 05:48:41;;;;;;;9.50;4.83;;;6.10;99.90;;;;;;4956025;29;20668;-78
2023/01/13 05:51:10;;;;;;;9.10;4.83;;;6.10;99.90;;;;;;4956222;29;20642;-80
2023/01/13 05:53:39;;;;;;;11.97;5.20;;;6.20;99.90;;;;;;4938700;29;20216;-82
2023/01/13 05:56:08;;;;;;;14.33;5.20;;;6.20;99.90;;;;;;4938519;29;20546;-81
2023/01/13 05:58:35;;;;;;;11.17;4.80;;;6.20;99.90;;;;;;4955968;29;20193;-82
2023/01/13 06:01:05;;;;;;;9.27;4.90;;;6.20;99.90;;;;;;4922956;29;20209;-80
2023/01/13 06:03:33;;;;;;;11.37;5.43;;;6.10;99.90;;;;;;4938797;29;20201;-82
2023/01/13 06:06:02;;;;;;;11.03;5.53;;;6.10;99.90;;;;;;4938704;29;20317;-81
2023/01/13 06:08:30;;;;;;;10.23;5.27;;;6.20;99.90;;;;;;4938613;29;20253;-79
2023/01/13 06:10:59;;;;;;;11.93;5.00;;;6.00;99.90;;;;;;4955781;29;20284;-81
2023/01/13 06:13:26;;;;;;;12.97;5.20;;;6.00;99.90;;;;;;4955608;29;20197;-81
2023/01/13 06:15:57;;;;;;;10.57;5.70;;;6.00;99.90;;;;;;4938504;29;20194;-81
2023/01/13 06:18:26;;;;;;;11.63;5.07;;;6.00;99.90;;;;;;4938424;29;20298;-80
2023/01/13 06:20:53;;;;;;;13.30;5.77;;;5.90;99.90;;;;;;4938127;29;20224;-81
2023/01/13 06:23:19;;;;;;;11.50;5.70;;;5.90;99.90;;;;;;4938345;29;20197;-80
2023/01/13 06:26:14;;;;;;;12.13;5.70;;;6.00;99.90;;;;;;4937744;29;20613;-79
2023/01/13 06:28:41;;;;;;;14.73;6.03;;;5.90;99.90;;;;;;4938686;29;20213;-80
2023/01/13 06:31:09;;;;;;;11.20;5.60;;;5.90;99.90;;;;;;4937955;29;20214;-80
2023/01/13 06:33:40;;;;;;;13.47;6.07;;;6.00;99.90;;;;;;4938138;29;20201;-79
2023/01/13 06:36:18;;;;;;;9.77;5.40;;;6.00;99.90;;;;;;4965544;28;20243;-78
2023/01/13 06:38:50;;;;;;;13.97;6.10;;;6.00;99.90;;;;;;4974952;28;20226;-80
2023/01/13 06:43:13;;;;;;;13.43;5.80;;;6.00;99.90;;;;;;4956924;28;20585;-80
2023/01/13 06:44:05;;;;;;;11.03;5.37;;;6.00;99.90;;;;;;4974247;28;20325;-79
2023/01/13 06:46:33;;;;;;;13.30;6.30;;;6.10;99.90;;;;;;4956801;28;20298;-80
2023/01/13 06:49:00;;;;;;;11.80;5.47;;;6.00;99.90;;;;;;4973613;28;20205;-81
2023/01/13 06:51:27;;;;;;;11.67;5.50;;;5.90;99.90;;;;;;4957175;28;20639;-81
2023/01/13 06:53:54;;;;;;;12.83;6.00;;;6.00;99.90;;;;;;4973398;28;20675;-79
2023/01/13 06:56:21;;;;;;;11.80;5.57;;;6.00;99.90;;;;;;4957021;28;20203;-79
2023/01/13 06:58:48;;;;;;;10.73;5.37;;;6.00;99.90;;;;;;4972993;28;20552;-81
2023/01/13 07:01:14;;;;;;;10.43;5.60;;;6.00;99.90;;;;;;4957228;28;20204;-81
2023/01/13 07:03:41;;;;;;;10.80;5.83;;;6.00;99.90;;;;;;4972942;28;20695;-81
2023/01/13 07:06:08;;;;;;;10.50;5.87;;;6.00;99.90;;;;;;4956805;28;20209;-82
2023/01/13 07:08:35;;;;;;;12.43;5.80;;;6.10;99.90;;;;;;4956904;28;20207;-81
2023/01/13 07:11:02;;;;;;;15.13;6.37;;;6.00;99.90;;;;;;4974423;28;20675;-82
2023/01/13 07:16:14;;;;;;;13.73;6.00;;;6.00;99.90;;;;;;4956691;28;20208;-82
2023/01/13 07:18:41;;;;;;;12.13;5.73;;;6.00;99.90;;;;;;4973076;28;20247;-80
2023/01/13 07:21:11;;;;;;;11.57;6.00;;;6.00;99.90;;;;;;4973897;28;20764;-81
2023/01/13 07:23:40;;;;;;;10.80;5.43;;;6.00;99.90;;;;;;4956983;28;20293;-79
2023/01/13 07:26:08;;;;;;;14.33;5.80;;;6.10;99.90;;;;;;4956244;28;20616;-80
2023/01/13 07:28:36;;;;;;;9.70;5.40;;;6.10;99.90;;;;;;4972226;28;20211;-78
2023/01/13 07:31:04;;;;;;;14.07;6.37;;;6.10;99.90;;;;;;4956297;28;20236;-79
2023/01/13 07:33:33;;;;;;;9.70;5.53;;;6.20;99.90;;;;;;4956608;28;20226;-79
2023/01/13 07:36:02;;;;;;;11.80;5.70;;;6.30;99.90;;;;;;4971773;28;20689;-76
2023/01/13 07:38:31;;;;;;;10.33;5.70;;;6.20;99.90;;;;;;4956157;28;20308;-77
2023/01/13 07:43:30;;;;;;;10.23;5.30;;;6.20;99.90;;;;;;4956385;28;20232;-79
2023/01/13 07:43:49;;;;;;;11.80;5.43;;;6.20;99.90;;;;;;4956622;28;20600;-80
2023/01/13 07:46:18;;;;;;;12.17;5.80;;;6.30;99.90;;;;;;4972235;28;20200;-76
2023/01/13 07:48:46;;;;;;;11.17;5.63;;;6.20;99.90;;;;;;4973921;28;20632;-80
2023/01/13 07:51:14;;;;;;;13.37;7.10;;;6.20;99.90;;;;;;4971954;28;20209;-78
2023/01/13 07:53:40;;;;;;;11.63;5.40;;;6.20;99.90;;;;;;4975049;28;20202;-79
2023/01/13 07:56:08;;;;;;;12.33;5.87;;;6.30;99.90;;;;;;4976981;28;20318;-76
2023/01/13 07:58:36;;;;;;;11.87;5.70;;;6.20;99.90;;;;;;4977902;28;20212;-77
2023/01/13 08:01:11;;;;;;;12.03;6.00;;;6.30;99.90;;;;;;4975664;28;20628;-78
2023/01/13 08:03:39;;;;;;;11.03;5.97;;;6.30;99.90;;;;;;4943884;28;20209;-80
2023/01/13 08:06:07;;;;;;;10.47;5.70;;;6.40;99.90;;;;;;4975645;28;20296;-74
2023/01/13 08:08:34;;;;;;;12.80;6.00;;;6.30;99.90;;;;;;4959533;28;20202;-76
2023/01/13 08:11:03;;;;;;;14.40;5.80;;;6.30;99.90;;;;;;4975586;28;20205;-78
2023/01/13 08:13:30;;;;;;;12.87;6.10;;;6.30;99.90;;;;;;4975092;28;20215;-77
2023/01/13 08:16:05;;;;;;;11.57;5.63;;;6.30;99.90;;;;;;4958926;28;20323;-77
2023/01/13 08:18:33;;;;;;;9.73;5.37;;;6.40;99.90;;;;;;4959449;28;20711;-75
2023/01/13 08:21:06;;;;;;;9.70;5.40;;;6.30;99.90;;;;;;4959459;28;20294;-78
2023/01/13 08:23:34;;;;;;;11.27;5.40;;;6.50;99.90;;;;;;4958929;28;20201;-77
2023/01/13 08:26:06;;;;;;;9.83;5.27;;;6.60;99.90;;;;;;4959625;28;20207;-77
2023/01/13 08:28:33;;;;;;;9.40;5.40;;;6.40;99.90;;;;;;4959434;28;20210;-77
2023/01/13 08:31:02;;;;;;;11.93;5.57;;;6.60;99.90;;;;;;4974234;28;20287;-77
2023/01/13 08:33:29;;;;;;;9.37;5.20;;;6.60;99.90;;;;;;4959179;28;20202;-80
2023/01/13 08:35:57;;;;;;;9.23;5.17;;;6.50;99.90;;;;;;4958779;28;20237;-79
2023/01/13 08:38:24;;;;;;;10.67;5.30;;;6.50;99.90;;;;;;4975557;28;20296;-82
2023/01/13 08:40:51;;;;;;;10.93;5.30;;;6.60;99.90;;;;;;4976923;28;20293;-80
2023/01/13 08:43:18;;;;;;;9.30;5.27;;;6.50;99.90;;;;;;4959673;28;20568;-80
2023/01/13 08:45:53;;;;;;;8.63;4.90;;;6.60;99.90;;;;;;4959506;28;20212;-80
2023/01/13 08:48:20;;;;;;;11.57;5.30;;;6.60;99.90;;;;;;4959854;28;20200;-81
2023/01/13 08:50:47;;;;;;;12.13;5.23;;;6.60;99.90;;;;;;4959641;28;20644;-83
2023/01/13 08:53:14;;;;;;;10.17;5.00;;;6.70;99.90;;;;;;4959266;28;20279;-80
2023/01/13 08:55:41;;;;;;;9.47;5.27;;;6.70;99.90;;;;;;4959121;28;20592;-78
2023/01/13 08:58:07;;;;;;;10.03;5.20;;;6.70;99.90;;;;;;4976635;28;20481;-81
2023/01/13 09:00:42;;;;;;;8.67;4.90;;;6.80;99.90;;;;;;4959202;28;20203;-80
2023/01/13 09:03:09;;;;;;;9.10;5.10;;;6.70;99.90;;;;;;4959120;28;20245;-78
2023/01/13 09:05:36;;;;;;;10.33;5.77;;;6.70;99.90;;;;;;4976639;28;20641;-78
2023/01/13 09:08:03;;;;;;;9.27;4.83;;;6.80;99.90;;;;;;4976414;28;20559;-78
2023/01/13 09:10:39;;;;;;;9.03;5.00;;;6.90;99.90;;;;;;4958989;28;20209;-78
2023/01/13 09:13:10;;;;;;;10.07;5.57;;;6.90;99.90;;;;;;4958682;28;20191;-78
2023/01/13 09:15:44;;;;;;;10.90;5.20;;;6.90;99.90;;;;;;4974258;28;20720;-77
2023/01/13 09:18:12;;;;;;;8.63;5.10;;;6.90;99.90;;;;;;4958484;28;20197;-78
2023/01/13 09:20:39;;;;;;;7.80;4.87;;;6.90;99.90;;;;;;4958826;28;20208;-78
2023/01/13 09:23:06;;;;;;;8.70;5.13;;;6.90;99.90;;;;;;4975817;28;20219;-78
2023/01/13 09:25:37;;;;;;;9.20;5.23;;;7.10;99.90;;;;;;4974048;28;20295;-78
2023/01/13 09:28:04;;;;;;;10.37;4.97;;;7.00;99.90;;;;;;4958069;28;20199;-78
2023/01/13 09:30:31;;;;;;;8.47;5.10;;;6.90;99.90;;;;;;4957718;28;20225;-79
2023/01/13 09:35:44;;;;;;;9.87;4.83;;;7.00;99.90;;;;;;4954236;29;20236;-79
2023/01/13 09:38:11;;;;;;;8.17;4.50;;;7.00;99.90;;;;;;4954577;29;20293;-79
2023/01/13 09:40:40;;;;;;;11.70;4.70;;;7.10;99.90;;;;;;4954622;29;20316;-80
2023/01/13 09:46:45;;;;;;;10.93;5.10;;;7.20;99.90;;;;;;4955643;29;20193;-80
2023/01/13 09:49:27;;;;;;;8.07;4.50;;;7.10;99.90;;;;;;4956215;29;20201;-79
2023/01/13 09:52:18;;;;;;;10.90;4.27;;;7.10;99.90;;;;;;4956088;28;20637;-80
2023/01/13 09:55:01;;;;;;;7.93;4.00;;;7.20;99.90;;;;;;4954100;29;20748;-79
2023/01/13 09:57:33;;;;;;;9.20;3.87;;;7.20;99.90;;;;;;4955579;29;20627;-79
2023/01/13 10:00:00;;;;;;;8.07;4.43;;;7.30;99.90;;;;;;4955446;28;20208;-81
2023/01/13 10:02:51;;;;;;;10.33;4.03;;;7.30;99.90;;;;;;4954345;29;20191;-81
2023/01/13 10:05:18;;;;;;;6.70;3.70;;;7.30;99.90;;;;;;4955851;29;20710;-80
2023/01/13 10:08:03;;;;;;;7.63;4.10;;;7.50;99.90;;;;;;4954151;29;20232;-79
2023/01/13 10:10:43;;;;;;;7.43;3.80;;;7.40;99.90;;;;;;4938671;29;20213;-80
2023/01/13 10:13:23;;;;;;;10.73;4.17;;;7.40;99.90;;;;;;4955333;28;20199;-81
2023/01/13 10:16:11;;;;;;;7.60;3.67;;;7.40;99.90;;;;;;4969209;28;20221;-83
2023/01/13 10:19:09;;;;;;;7.70;4.03;;;7.40;99.90;;;;;;4953807;29;20217;-80
2023/01/13 10:22:09;;;;;;;8.00;4.10;;;7.50;99.90;;;;;;4955253;28;20196;-80
2023/01/13 10:24:57;;;;;;;7.60;3.80;;;7.50;99.90;;;;;;4955162;29;20227;-78
2023/01/13 10:27:28;;;;;;;7.03;3.80;;;7.50;99.90;;;;;;4969632;28;20203;-78
2023/01/13 10:29:55;;;;;;;8.67;4.10;;;7.50;99.90;;;;;;4953539;29;20563;-79
2023/01/13 10:32:22;;;;;;;6.47;3.73;;;7.50;99.90;;;;;;4953535;29;20208;-79
2023/01/13 10:34:51;;;;;;;9.43;4.83;;;7.50;99.90;;;;;;4953501;28;20235;-80
2023/01/13 10:37:21;;;;;;;7.13;3.83;;;7.60;99.90;;;;;;4972958;28;20200;-83
2023/01/13 10:39:54;;;;;;;7.33;4.10;;;7.70;99.90;;;;;;4956553;28;20200;-79
2023/01/13 10:42:22;;;;;;;6.30;3.53;;;7.70;99.90;;;;;;4972946;28;20206;-80
2023/01/13 10:44:56;;;;;;;9.80;4.40;;;7.70;99.90;;;;;;4973739;28;20569;-81
2023/01/13 10:47:31;;;;;;;6.90;3.87;;;7.70;99.90;;;;;;4956616;28;20208;-78
2023/01/13 10:50:09;;;;;;;7.73;4.10;;;7.70;99.90;;;;;;4956682;28;20200;-79
2023/01/13 10:52:41;;;;;;;7.50;4.33;;;7.70;99.90;;;;;;4972656;28;20198;-78
2023/01/13 10:55:32;;;;;;;10.00;4.60;;;7.80;99.90;;;;;;4972356;28;20225;-80
2023/01/13 10:58:15;;;;;;;8.60;4.00;;;7.80;99.90;;;;;;4973781;28;20287;-79
2023/01/13 11:00:42;;;;;;;7.90;3.90;;;7.80;99.90;;;;;;4956464;28;20323;-78
2023/01/13 11:03:19;;;;;;;8.03;4.10;;;7.80;99.90;;;;;;4972434;28;20622;-80
2023/01/13 11:05:55;;;;;;;9.03;4.53;;;7.80;99.90;;;;;;4956795;28;20234;-79
2023/01/13 11:08:25;;;;;;;8.27;4.40;;;7.80;99.90;;;;;;4972609;28;20202;-80
2023/01/13 11:10:54;;;;;;;8.10;3.93;;;7.80;99.90;;;;;;4956654;28;20240;-79
2023/01/13 11:13:21;;;;;;;8.83;4.43;;;7.80;99.90;;;;;;4956782;28;20649;-78
2023/01/13 11:16:09;;;;;;;9.00;4.60;;;8.00;99.90;;;;;;4972673;28;20229;-81
2023/01/13 11:18:36;;;;;;;8.70;4.50;;;8.00;99.90;;;;;;4973925;28;20199;-79
2023/01/13 11:21:10;;;;;;;11.17;4.73;;;8.10;99.90;;;;;;4957322;28;20214;-79
2023/01/13 11:23:48;;;;;;;7.60;4.43;;;8.00;99.90;;;;;;4971840;28;20230;-78
2023/01/13 11:26:22;;;;;;;8.77;4.67;;;8.20;99.90;;;;;;4956389;28;20725;-77
2023/01/13 11:28:54;;;;;;;7.83;4.43;;;8.10;99.90;;;;;;4959622;28;20278;-78
2023/01/13 11:31:42;;;;;;;7.40;4.63;;;8.10;99.90;;;;;;4960533;28;20209;-77
2023/01/13 11:34:26;;;;;;;9.20;4.27;;;8.10;99.90;;;;;;4960289;28;20236;-78
2023/01/13 11:36:57;;;;;;;8.80;4.33;;;8.10;99.90;;;;;;4977369;28;20397;-79
2023/01/13 11:39:39;;;;;;;11.00;4.73;;;8.20;99.90;;;;;;4960460;28;20196;-78
2023/01/13 11:42:25;;;;;;;7.97;4.70;;;8.10;99.90;;;;;;4977971;28;20180;-77
2023/01/13 11:45:30;;;;;;;7.40;4.60;;;8.20;99.90;;;;;;4976297;28;20208;-79
2023/01/13 11:48:00;;;;;;;9.70;4.83;;;8.20;99.90;;;;;;4976266;28;20667;-78
2023/01/13 11:50:49;;;;;;;9.20;4.63;;;8.30;99.90;;;;;;4959048;28;20208;-78
2023/01/13 11:53:43;;;;;;;8.53;4.40;;;8.30;99.90;;;;;;4959634;28;20568;-80
2023/01/13 11:56:48;;;;;;;10.07;5.10;;;8.40;99.90;;;;;;4959527;28;20263;-79
2023/01/13 11:59:26;;;;;;;10.07;4.83;;;8.40;99.90;;;;;;4960071;28;20620;-80
2023/01/13 12:02:02;;;;;;;9.20;5.10;;;8.50;99.90;;;;;;4977491;28;20197;-79
2023/01/13 12:04:40;;;;;;;11.27;5.10;;;8.50;99.90;;;;;;4959887;28;20207;-81
2023/01/13 12:07:26;;;;;;;8.87;4.90;;;8.60;99.90;;;;;;4960042;28;20633;-80
2023/01/13 12:09:55;;;;;;;9.90;5.20;;;8.60;99.90;;;;;;4959992;28;20212;-82
2023/01/13 12:12:36;;;;;;;8.17;4.43;;;8.60;99.90;;;;;;4977236;28;20197;-83
2023/01/13 12:15:28;;;;;;;7.93;4.50;;;8.60;99.90;;;;;;4959670;28;20201;-82
2023/01/13 12:18:04;;;;;;;9.80;5.10;;;8.60;99.90;;;;;;4975911;28;20239;-83
2023/01/13 12:20:33;;;;;;;8.47;4.70;;;8.50;99.90;;;;;;4959829;28;20226;-82
2023/01/13 12:23:06;;;;;;;9.40;4.80;;;8.60;99.90;;;;;;4975920;28;20200;-82
2023/01/13 12:25:57;;;;;;;8.07;4.57;;;8.60;99.90;;;;;;4959895;28;20300;-83
2023/01/13 12:28:31;;;;;;;10.40;4.80;;;8.60;99.90;;;;;;4959956;28;20201;-83
2023/01/13 12:31:00;;;;;;;7.97;4.67;;;8.60;99.90;;;;;;4959377;28;20199;-82
2023/01/13 12:33:48;;;;;;;10.57;4.90;;;8.70;99.90;;;;;;4977345;28;20181;-82
2023/01/13 12:36:54;;;;;;;8.63;4.60;;;8.70;99.90;;;;;;4974987;28;20288;-82
2023/01/13 12:39:42;;;;;;;9.37;5.03;;;8.70;99.90;;;;;;4976546;28;20192;-82
2023/01/13 12:45:37;;;;;;;8.83;4.90;;;8.70;99.90;;;;;;4897778;29;20238;-80
2023/01/13 12:48:05;;;;;;;9.30;4.87;;;8.70;99.90;;;;;;4882612;29;20208;-82
2023/01/13 12:50:35;;;;;;;9.17;4.67;;;8.70;99.90;;;;;;4898227;29;20310;-80
2023/01/13 12:53:29;;;;;;;10.60;4.90;;;8.70;99.90;;;;;;4882450;29;20211;-80
2023/01/13 12:56:19;;;;;;;10.07;4.60;;;8.70;99.90;;;;;;4898332;29;20770;-82
2023/01/13 12:58:46;;;;;;;9.30;4.73;;;8.70;99.90;;;;;;4898515;29;20220;-81
2023/01/13 13:01:13;;;;;;;9.57;4.80;;;8.70;99.90;;;;;;4882845;29;20207;-81
2023/01/13 13:04:01;;;;;;;9.33;4.80;;;8.70;99.90;;;;;;4882665;29;20680;-79
2023/01/13 13:06:30;;;;;;;10.33;4.70;;;8.80;99.90;;;;;;4898056;29;20275;-81
2023/01/13 13:09:16;;;;;;;10.17;4.73;;;8.90;99.90;;;;;;4897841;29;20601;-79
2023/01/13 13:14:38;;;;;;;12.30;5.13;;;8.80;99.90;;;;;;4897527;29;20752;-81
2023/01/13 13:17:26;;;;;;;9.30;4.97;;;8.80;99.90;;;;;;4897079;29;20224;-81
2023/01/13 13:19:58;;;;;;;8.80;4.90;;;8.90;99.90;;;;;;4945927;28;20209;-79
2023/01/13 13:22:25;;;;;;;8.70;4.50;;;8.90;99.90;;;;;;4975800;28;20197;-80
2023/01/13 13:24:55;;;;;;;10.93;5.20;;;8.80;99.90;;;;;;4976403;28;20258;-80
2023/01/13 13:27:33;;;;;;;9.57;4.97;;;8.90;99.90;;;;;;4958675;28;20201;-81
2023/01/13 13:30:32;;;;;;;10.30;5.37;;;8.90;99.90;;;;;;4958487;28;20215;-82
2023/01/13 13:33:17;;;;;;;11.93;5.10;;;9.00;99.90;;;;;;4958063;28;20607;-80
2023/01/13 13:35:58;;;;;;;8.47;5.17;;;9.00;99.90;;;;;;4973871;28;20689;-80
2023/01/13 13:47:09;;;;;;;10.90;5.83;;;8.90;99.90;;;;;;4919186;29;20210;-81
2023/01/13 13:49:43;;;;;;;10.90;5.97;;;9.10;99.90;;;;;;4934233;29;20203;-81
2023/01/13 13:52:10;;;;;;;10.90;5.70;;;9.00;99.90;;;;;;4934874;29;20216;-81
2023/01/13 13:54:43;;;;;;;9.33;5.03;;;9.20;99.90;;;;;;4918637;29;20205;-80
2023/01/13 13:57:27;;;;;;;12.23;5.07;;;9.20;99.90;;;;;;4934599;29;20234;-81
2023/01/13 13:59:57;;;;;;;11.93;5.50;;;9.00;99.90;;;;;;4934865;29;20226;-78
2023/01/13 14:02:30;;;;;;;9.93;5.70;;;9.10;99.90;;;;;;4934493;29;20284;-80
2023/01/13 14:05:17;;;;;;;9.63;5.37;;;9.10;99.90;;;;;;4934698;29;20206;-78
2023/01/13 14:07:50;;;;;;;10.50;4.93;;;9.10;99.90;;;;;;4934724;29;20208;-81
2023/01/13 14:10:25;;;;;;;9.83;4.87;;;9.00;99.90;;;;;;4934912;29;20205;-82
2023/01/13 14:12:53;;;;;;;10.40;5.40;;;9.00;99.90;;;;;;4918720;29;20308;-76
2023/01/13 14:15:33;;;;;;;9.77;5.23;;;9.10;99.90;;;;;;4933791;29;20232;-78
2023/01/13 14:18:09;;;;;;;8.60;5.03;;;9.10;99.90;;;;;;4918222;29;20293;-79
2023/01/13 14:20:36;;;;;;;9.63;5.37;;;9.00;99.90;;;;;;4935167;29;20214;-86
2023/01/13 14:23:04;;;;;;;8.60;5.23;;;8.90;99.90;;;;;;4935015;29;20205;-80
2023/01/13 14:25:48;;;;;;;8.40;5.13;;;8.90;99.90;;;;;;4974120;28;20200;-83
2023/01/13 14:28:26;;;;;;;9.70;5.60;;;8.90;99.90;;;;;;4958009;28;20228;-82